sensor_id;sensor_type;location;lat;lon;timestamp;temperature;humidity
2465;DHT22;1244;54.326;10.074;2024-03-08T00:00:00;1.60;99.90
2465;DHT22;1244;54.326;10.074;2024-03-08T00:02:37;1.50;99.90
2465;DHT22;1244;54.326;10.074;2024-03-08T00:05:04;1.60;99.90
2465;DHT22;1244;54.326;10.074;2024-03-08T00:07:29;1.60;99.90
2465;DHT22;1244;54.326;10.074;2024-03-08T00:09:55;1.60;99.90
2465;DHT22;1244;54.326;10.074;2024-03-08T00:12:20;1.60;99.90
2465;DHT22;1244;54.326;10.074;2024-03-08T00:14:45;1.40;99.90
2465;DHT22;1244;54.326;10.074;2024-03-08T00:17:11;1.40;99.90
2465;DHT22;1244;54.326;10.074;2024-03-08T00:19:36;1.30;99.90
2465;DHT22;1244;54.326;10.074;2024-03-08T00:22:02;1.30;99.90
2465;DHT22;1244;54.326;10.074;2024-03-08T00:24:27;1.30;99.90
2465;DHT22;1244;54.326;10.074;2024-03-08T00:26:54;1.20;99.90
2465;DHT22;1244;54.326;10.074;2024-03-08T00:29:20;1.20;99.90
2465;DHT22;1244;54.326;10.074;2024-03-08T00:31:45;1.10;99.90
2465;DHT22;1244;54.326;10.074;2024-03-08T00:34:11;1.10;99.90
2465;DHT22;1244;54.326;10.074;2024-03-08T00:36:37;1.10;99.90
2465;DHT22;1244;54.326;10.074;2024-03-08T00:39:02;1.10;99.90
2465;DHT22;1244;54.326;10.074;2024-03-08T00:41:31;1.10;99.90
2465;DHT22;1244;54.326;10.074;2024-03-08T00:43:57;1.00;99.90
2465;DHT22;1244;54.326;10.074;2024-03-08T00:46:22;1.00;99.90
2465;DHT22;1244;54.326;10.074;2024-03-08T00:48:48;1.00;99.90
2465;DHT22;1244;54.326;10.074;2024-03-08T00:51:13;1.00;99.90
2465;DHT22;1244;54.326;10.074;2024-03-08T00:53:40;1.00;99.90
2465;DHT22;1244;54.326;10.074;2024-03-08T00:56:07;1.00;99.90
2465;DHT22;1244;54.326;10.074;2024-03-08T00:58:38;0.90;99.90
2465;DHT22;1244;54.326;10.074;2024-03-08T01:01:03;0.80;99.90
2465;DHT22;1244;54.326;10.074;2024-03-08T01:03:30;0.80;99.90
2465;DHT22;1244;54.326;10.074;2024-03-08T01:05:57;0.90;99.90
2465;DHT22;1244;54.326;10.074;2024-03-08T01:08:22;0.80;99.90
2465;DHT22;1244;54.326;10.074;2024-03-08T01:10:48;0.70;99.90
2465;DHT22;1244;54.326;10.074;2024-03-08T01:13:16;0.70;99.90
2465;DHT22;1244;54.326;10.074;2024-03-08T01:15:41;0.70;99.90
2465;DHT22;1244;54.326;10.074;2024-03-08T01:18:06;0.70;99.90
2465;DHT22;1244;54.326;10.074;2024-03-08T01:20:32;0.60;99.90
2465;DHT22;1244;54.326;10.074;2024-03-08T01:22:57;0.60;99.90
2465;DHT22;1244;54.326;10.074;2024-03-08T01:25:23;0.60;99.90
2465;DHT22;1244;54.326;10.074;2024-03-08T01:27:48;0.60;99.90
2465;DHT22;1244;54.326;10.074;2024-03-08T01:30:14;0.60;99.90
2465;DHT22;1244;54.326;10.074;2024-03-08T01:32:42;0.60;99.90
2465;DHT22;1244;54.326;10.074;2024-03-08T01:35:09;0.60;99.90
2465;DHT22;1244;54.326;10.074;2024-03-08T01:37:35;0.60;99.90
2465;DHT22;1244;54.326;10.074;2024-03-08T01:40:01;0.60;99.90
2465;DHT22;1244;54.326;10.074;2024-03-08T01:42:28;0.50;99.90
2465;DHT22;1244;54.326;10.074;2024-03-08T01:44:53;0.50;99.90
2465;DHT22;1244;54.326;10.074;2024-03-08T01:47:19;0.50;99.90
2465;DHT22;1244;54.326;10.074;2024-03-08T01:49:51;0.50;99.90
2465;DHT22;1244;54.326;10.074;2024-03-08T01:52:17;0.40;99.90
2465;DHT22;1244;54.326;10.074;2024-03-08T01:54:45;0.40;99.90
2465;DHT22;1244;54.326;10.074;2024-03-08T01:57:11;0.40;99.90
2465;DHT22;1244;54.326;10.074;2024-03-08T01:59:37;0.40;99.90
2465;DHT22;1244;54.326;10.074;2024-03-08T02:02:03;0.50;99.90
2465;DHT22;1244;54.326;10.074;2024-03-08T02:04:29;0.50;99.90
2465;DHT22;1244;54.326;10.074;2024-03-08T02:06:56;0.60;99.90
2465;DHT22;1244;54.326;10.074;2024-03-08T02:09:23;0.60;99.90
2465;DHT22;1244;54.326;10.074;2024-03-08T02:11:50;0.60;99.90
2465;DHT22;1244;54.326;10.074;2024-03-08T02:14:15;0.50;99.90
2465;DHT22;1244;54.326;10.074;2024-03-08T02:16:42;0.60;99.90
2465;DHT22;1244;54.326;10.074;2024-03-08T02:19:07;0.50;99.90
2465;DHT22;1244;54.326;10.074;2024-03-08T02:21:35;0.60;99.90
2465;DHT22;1244;54.326;10.074;2024-03-08T02:24:01;0.60;99.90
2465;DHT22;1244;54.326;10.074;2024-03-08T02:26:27;0.60;99.90
2465;DHT22;1244;54.326;10.074;2024-03-08T02:28:52;0.60;99.90
2465;DHT22;1244;54.326;10.074;2024-03-08T02:31:18;0.60;99.90
2465;DHT22;1244;54.326;10.074;2024-03-08T02:33:43;0.50;99.90
2465;DHT22;1244;54.326;10.074;2024-03-08T02:36:08;0.50;99.90
2465;DHT22;1244;54.326;10.074;2024-03-08T02:38:36;0.50;99.90
2465;DHT22;1244;54.326;10.074;2024-03-08T02:41:03;0.60;99.90
2465;DHT22;1244;54.326;10.074;2024-03-08T02:43:29;0.50;99.90
2465;DHT22;1244;54.326;10.074;2024-03-08T02:45:54;0.50;99.90
2465;DHT22;1244;54.326;10.074;2024-03-08T02:48:20;0.50;99.90
2465;DHT22;1244;54.326;10.074;2024-03-08T02:50:47;0.50;99.90
2465;DHT22;1244;54.326;10.074;2024-03-08T02:53:12;0.70;99.90
2465;DHT22;1244;54.326;10.074;2024-03-08T02:55:41;0.80;99.90
2465;DHT22;1244;54.326;10.074;2024-03-08T02:58:07;0.90;99.90
2465;DHT22;1244;54.326;10.074;2024-03-08T03:00:36;0.90;99.90
2465;DHT22;1244;54.326;10.074;2024-03-08T03:03:01;1.00;99.90
2465;DHT22;1244;54.326;10.074;2024-03-08T03:05:28;1.10;99.90
2465;DHT22;1244;54.326;10.074;2024-03-08T03:07:54;1.20;99.90
2465;DHT22;1244;54.326;10.074;2024-03-08T03:10:20;1.20;99.90
2465;DHT22;1244;54.326;10.074;2024-03-08T03:12:47;1.20;99.90
2465;DHT22;1244;54.326;10.074;2024-03-08T03:15:14;1.30;99.90
2465;DHT22;1244;54.326;10.074;2024-03-08T03:17:40;1.30;99.90
2465;DHT22;1244;54.326;10.074;2024-03-08T03:20:08;1.30;99.90
2465;DHT22;1244;54.326;10.074;2024-03-08T03:22:38;1.30;99.90
2465;DHT22;1244;54.326;10.074;2024-03-08T03:25:03;1.20;99.90
2465;DHT22;1244;54.326;10.074;2024-03-08T03:27:29;1.20;99.90
2465;DHT22;1244;54.326;10.074;2024-03-08T03:29:55;1.30;99.90
2465;DHT22;1244;54.326;10.074;2024-03-08T03:32:23;1.30;99.90
2465;DHT22;1244;54.326;10.074;2024-03-08T03:34:48;1.30;99.90
2465;DHT22;1244;54.326;10.074;2024-03-08T03:37:14;1.30;99.90
2465;DHT22;1244;54.326;10.074;2024-03-08T03:39:39;1.30;99.90
2465;DHT22;1244;54.326;10.074;2024-03-08T03:42:17;1.40;99.90
2465;DHT22;1244;54.326;10.074;2024-03-08T03:44:46;1.30;99.90
2465;DHT22;1244;54.326;10.074;2024-03-08T03:47:12;1.40;99.90
2465;DHT22;1244;54.326;10.074;2024-03-08T03:49:38;1.40;99.90
2465;DHT22;1244;54.326;10.074;2024-03-08T03:52:04;1.40;99.90
2465;DHT22;1244;54.326;10.074;2024-03-08T03:54:30;1.40;99.90
2465;DHT22;1244;54.326;10.074;2024-03-08T03:56:55;1.40;99.90
2465;DHT22;1244;54.326;10.074;2024-03-08T03:59:21;1.40;99.90
2465;DHT22;1244;54.326;10.074;2024-03-08T04:01:46;1.50;99.90
2465;DHT22;1244;54.326;10.074;2024-03-08T04:04:12;1.50;99.90
2465;DHT22;1244;54.326;10.074;2024-03-08T04:06:37;1.40;99.90
2465;DHT22;1244;54.326;10.074;2024-03-08T04:09:03;1.50;99.90
2465;DHT22;1244;54.326;10.074;2024-03-08T04:11:29;1.50;99.90
2465;DHT22;1244;54.326;10.074;2024-03-08T04:13:55;1.50;99.90
2465;DHT22;1244;54.326;10.074;2024-03-08T04:16:21;1.50;99.90
2465;DHT22;1244;54.326;10.074;2024-03-08T04:18:46;1.50;99.90
2465;DHT22;1244;54.326;10.074;2024-03-08T04:21:12;1.50;99.90
2465;DHT22;1244;54.326;10.074;2024-03-08T04:23:38;1.50;99.90
2465;DHT22;1244;54.326;10.074;2024-03-08T04:26:03;1.50;99.90
2465;DHT22;1244;54.326;10.074;2024-03-08T04:28:31;1.50;99.90
2465;DHT22;1244;54.326;10.074;2024-03-08T04:30:56;1.50;99.90
2465;DHT22;1244;54.326;10.074;2024-03-08T04:33:22;1.60;99.90
2465;DHT22;1244;54.326;10.074;2024-03-08T04:35:48;1.60;99.90
2465;DHT22;1244;54.326;10.074;2024-03-08T04:38:14;1.60;99.90
2465;DHT22;1244;54.326;10.074;2024-03-08T04:40:40;1.60;99.90
2465;DHT22;1244;54.326;10.074;2024-03-08T04:43:06;1.60;99.90
2465;DHT22;1244;54.326;10.074;2024-03-08T04:45:33;1.60;99.90
2465;DHT22;1244;54.326;10.074;2024-03-08T04:47:59;1.70;99.90
2465;DHT22;1244;54.326;10.074;2024-03-08T04:50:24;1.70;99.90
2465;DHT22;1244;54.326;10.074;2024-03-08T04:52:50;1.60;99.90
2465;DHT22;1244;54.326;10.074;2024-03-08T04:55:15;1.60;99.90
2465;DHT22;1244;54.326;10.074;2024-03-08T04:57:40;1.60;99.90
2465;DHT22;1244;54.326;10.074;2024-03-08T05:00:09;1.60;99.90
2465;DHT22;1244;54.326;10.074;2024-03-08T05:02:37;1.60;99.90
2465;DHT22;1244;54.326;10.074;2024-03-08T05:05:07;1.60;99.90
2465;DHT22;1244;54.326;10.074;2024-03-08T05:07:32;1.60;99.90
2465;DHT22;1244;54.326;10.074;2024-03-08T05:09:58;1.70;99.90
2465;DHT22;1244;54.326;10.074;2024-03-08T05:12:24;1.70;99.90
2465;DHT22;1244;54.326;10.074;2024-03-08T05:14:49;1.60;99.90
2465;DHT22;1244;54.326;10.074;2024-03-08T05:17:15;1.60;99.90
2465;DHT22;1244;54.326;10.074;2024-03-08T05:19:41;1.70;99.90
2465;DHT22;1244;54.326;10.074;2024-03-08T05:22:07;1.70;99.90
2465;DHT22;1244;54.326;10.074;2024-03-08T05:24:32;1.70;99.90
2465;DHT22;1244;54.326;10.074;2024-03-08T05:26:58;1.70;99.90
2465;DHT22;1244;54.326;10.074;2024-03-08T05:29:25;1.70;99.90
2465;DHT22;1244;54.326;10.074;2024-03-08T05:31:51;1.70;99.90
2465;DHT22;1244;54.326;10.074;2024-03-08T05:34:20;1.70;99.90
2465;DHT22;1244;54.326;10.074;2024-03-08T05:36:47;1.80;99.90
2465;DHT22;1244;54.326;10.074;2024-03-08T05:39:15;1.80;99.90
2465;DHT22;1244;54.326;10.074;2024-03-08T05:41:40;1.80;99.90
2465;DHT22;1244;54.326;10.074;2024-03-08T05:44:06;1.80;99.90
2465;DHT22;1244;54.326;10.074;2024-03-08T05:46:31;1.80;99.90
2465;DHT22;1244;54.326;10.074;2024-03-08T05:48:57;1.80;99.90
2465;DHT22;1244;54.326;10.074;2024-03-08T05:51:24;1.90;99.90
2465;DHT22;1244;54.326;10.074;2024-03-08T05:53:51;1.90;99.90
2465;DHT22;1244;54.326;10.074;2024-03-08T05:56:18;1.90;99.90
2465;DHT22;1244;54.326;10.074;2024-03-08T05:58:44;1.80;99.90
2465;DHT22;1244;54.326;10.074;2024-03-08T06:01:11;1.80;99.90
2465;DHT22;1244;54.326;10.074;2024-03-08T06:03:38;1.90;99.90
2465;DHT22;1244;54.326;10.074;2024-03-08T06:06:13;1.80;99.90
2465;DHT22;1244;54.326;10.074;2024-03-08T06:08:38;1.80;99.90
2465;DHT22;1244;54.326;10.074;2024-03-08T06:11:04;1.90;99.90
2465;DHT22;1244;54.326;10.074;2024-03-08T06:13:34;1.90;99.90
2465;DHT22;1244;54.326;10.074;2024-03-08T06:16:00;1.90;99.90
2465;DHT22;1244;54.326;10.074;2024-03-08T06:18:30;2.00;99.90
2465;DHT22;1244;54.326;10.074;2024-03-08T06:20:55;2.00;99.90
2465;DHT22;1244;54.326;10.074;2024-03-08T06:23:21;2.00;99.90
2465;DHT22;1244;54.326;10.074;2024-03-08T06:25:47;2.00;99.90
2465;DHT22;1244;54.326;10.074;2024-03-08T06:28:12;2.00;99.90
2465;DHT22;1244;54.326;10.074;2024-03-08T06:30:39;2.00;99.90
2465;DHT22;1244;54.326;10.074;2024-03-08T06:33:05;2.00;99.90
2465;DHT22;1244;54.326;10.074;2024-03-08T06:35:30;2.10;99.90
2465;DHT22;1244;54.326;10.074;2024-03-08T06:38:00;2.00;99.90
2465;DHT22;1244;54.326;10.074;2024-03-08T06:40:25;2.10;99.90
2465;DHT22;1244;54.326;10.074;2024-03-08T06:42:51;2.10;99.90
2465;DHT22;1244;54.326;10.074;2024-03-08T06:45:17;2.10;99.90
2465;DHT22;1244;54.326;10.074;2024-03-08T06:47:46;2.20;99.90
2465;DHT22;1244;54.326;10.074;2024-03-08T06:50:11;2.20;99.90
2465;DHT22;1244;54.326;10.074;2024-03-08T06:52:37;2.30;99.90
2465;DHT22;1244;54.326;10.074;2024-03-08T06:55:04;2.20;99.90
2465;DHT22;1244;54.326;10.074;2024-03-08T06:57:31;2.30;99.90
2465;DHT22;1244;54.326;10.074;2024-03-08T06:59:56;2.20;99.90
2465;DHT22;1244;54.326;10.074;2024-03-08T07:02:25;2.20;99.90
2465;DHT22;1244;54.326;10.074;2024-03-08T07:04:51;2.20;99.90
2465;DHT22;1244;54.326;10.074;2024-03-08T07:07:18;2.30;99.90
2465;DHT22;1244;54.326;10.074;2024-03-08T07:09:45;2.40;99.90
2465;DHT22;1244;54.326;10.074;2024-03-08T07:12:11;2.30;99.90
2465;DHT22;1244;54.326;10.074;2024-03-08T07:14:38;2.30;99.90
2465;DHT22;1244;54.326;10.074;2024-03-08T07:17:06;2.30;99.90
2465;DHT22;1244;54.326;10.074;2024-03-08T07:19:33;2.30;99.90
2465;DHT22;1244;54.326;10.074;2024-03-08T07:21:58;2.30;99.90
2465;DHT22;1244;54.326;10.074;2024-03-08T07:24:24;2.40;99.90
2465;DHT22;1244;54.326;10.074;2024-03-08T07:27:03;2.40;99.90
2465;DHT22;1244;54.326;10.074;2024-03-08T07:29:30;2.50;99.90
2465;DHT22;1244;54.326;10.074;2024-03-08T07:31:55;2.60;99.90
2465;DHT22;1244;54.326;10.074;2024-03-08T07:34:27;2.60;99.90
2465;DHT22;1244;54.326;10.074;2024-03-08T07:36:57;2.50;99.90
2465;DHT22;1244;54.326;10.074;2024-03-08T07:39:22;2.60;99.90
2465;DHT22;1244;54.326;10.074;2024-03-08T07:41:49;3.00;99.90
2465;DHT22;1244;54.326;10.074;2024-03-08T07:44:14;3.40;99.90
2465;DHT22;1244;54.326;10.074;2024-03-08T07:46:40;3.70;99.90
2465;DHT22;1244;54.326;10.074;2024-03-08T07:49:06;3.70;99.90
2465;DHT22;1244;54.326;10.074;2024-03-08T07:51:33;3.90;99.90
2465;DHT22;1244;54.326;10.074;2024-03-08T07:54:00;4.00;99.90
2465;DHT22;1244;54.326;10.074;2024-03-08T07:56:25;3.80;99.90
2465;DHT22;1244;54.326;10.074;2024-03-08T07:58:51;3.70;99.90
2465;DHT22;1244;54.326;10.074;2024-03-08T08:01:19;3.60;99.90
2465;DHT22;1244;54.326;10.074;2024-03-08T08:03:45;3.70;99.90
2465;DHT22;1244;54.326;10.074;2024-03-08T08:06:10;3.80;99.90
2465;DHT22;1244;54.326;10.074;2024-03-08T08:08:41;3.90;99.90
2465;DHT22;1244;54.326;10.074;2024-03-08T08:11:06;4.10;99.90
2465;DHT22;1244;54.326;10.074;2024-03-08T08:13:34;4.50;99.90
2465;DHT22;1244;54.326;10.074;2024-03-08T08:15:59;4.50;99.90
2465;DHT22;1244;54.326;10.074;2024-03-08T08:18:25;4.60;99.90
2465;DHT22;1244;54.326;10.074;2024-03-08T08:20:51;4.70;99.90
2465;DHT22;1244;54.326;10.074;2024-03-08T08:23:17;5.00;99.90
2465;DHT22;1244;54.326;10.074;2024-03-08T08:25:44;5.20;99.90
2465;DHT22;1244;54.326;10.074;2024-03-08T08:28:10;5.20;99.90
2465;DHT22;1244;54.326;10.074;2024-03-08T08:30:38;5.00;99.90
2465;DHT22;1244;54.326;10.074;2024-03-08T08:33:03;5.10;99.90
2465;DHT22;1244;54.326;10.074;2024-03-08T08:35:31;5.30;99.90
2465;DHT22;1244;54.326;10.074;2024-03-08T08:37:56;5.10;99.90
2465;DHT22;1244;54.326;10.074;2024-03-08T08:40:24;4.80;99.90
2465;DHT22;1244;54.326;10.074;2024-03-08T08:42:51;5.20;99.90
2465;DHT22;1244;54.326;10.074;2024-03-08T08:45:18;5.40;99.90
2465;DHT22;1244;54.326;10.074;2024-03-08T08:47:46;5.60;99.90
2465;DHT22;1244;54.326;10.074;2024-03-08T08:50:12;5.70;99.90
2465;DHT22;1244;54.326;10.074;2024-03-08T08:52:38;5.90;99.90
2465;DHT22;1244;54.326;10.074;2024-03-08T08:55:04;5.80;99.90
2465;DHT22;1244;54.326;10.074;2024-03-08T08:57:31;6.00;99.90
2465;DHT22;1244;54.326;10.074;2024-03-08T08:59:58;5.80;99.90
2465;DHT22;1244;54.326;10.074;2024-03-08T09:02:24;5.70;99.90
2465;DHT22;1244;54.326;10.074;2024-03-08T09:04:51;5.50;99.90
2465;DHT22;1244;54.326;10.074;2024-03-08T09:07:16;5.80;99.90
2465;DHT22;1244;54.326;10.074;2024-03-08T09:09:44;5.60;99.90
2465;DHT22;1244;54.326;10.074;2024-03-08T09:12:09;5.60;99.90
2465;DHT22;1244;54.326;10.074;2024-03-08T09:14:39;6.00;99.90
2465;DHT22;1244;54.326;10.074;2024-03-08T09:17:05;6.10;99.90
2465;DHT22;1244;54.326;10.074;2024-03-08T09:19:31;6.10;99.90
2465;DHT22;1244;54.326;10.074;2024-03-08T09:21:58;6.20;99.90
2465;DHT22;1244;54.326;10.074;2024-03-08T09:24:23;6.40;99.90
2465;DHT22;1244;54.326;10.074;2024-03-08T09:26:49;6.80;99.90
2465;DHT22;1244;54.326;10.074;2024-03-08T09:29:14;6.90;99.90
2465;DHT22;1244;54.326;10.074;2024-03-08T09:31:40;6.90;99.90
2465;DHT22;1244;54.326;10.074;2024-03-08T09:34:06;7.20;99.90
2465;DHT22;1244;54.326;10.074;2024-03-08T09:36:33;7.60;99.90
2465;DHT22;1244;54.326;10.074;2024-03-08T09:38:59;7.40;99.90
2465;DHT22;1244;54.326;10.074;2024-03-08T09:41:26;7.40;99.90
2465;DHT22;1244;54.326;10.074;2024-03-08T09:43:51;7.60;99.90
2465;DHT22;1244;54.326;10.074;2024-03-08T09:46:17;7.70;99.90
2465;DHT22;1244;54.326;10.074;2024-03-08T09:48:44;7.60;99.90
2465;DHT22;1244;54.326;10.074;2024-03-08T09:51:12;7.60;99.90
2465;DHT22;1244;54.326;10.074;2024-03-08T09:53:40;7.80;99.90
2465;DHT22;1244;54.326;10.074;2024-03-08T09:56:07;8.00;99.90
2465;DHT22;1244;54.326;10.074;2024-03-08T09:58:33;8.40;99.90
2465;DHT22;1244;54.326;10.074;2024-03-08T10:00:59;8.70;99.90
2465;DHT22;1244;54.326;10.074;2024-03-08T10:03:27;9.00;99.90
2465;DHT22;1244;54.326;10.074;2024-03-08T10:05:52;8.80;99.90
2465;DHT22;1244;54.326;10.074;2024-03-08T10:08:19;8.80;99.90
2465;DHT22;1244;54.326;10.074;2024-03-08T10:10:45;9.20;99.90
2465;DHT22;1244;54.326;10.074;2024-03-08T10:13:11;9.20;99.90
2465;DHT22;1244;54.326;10.074;2024-03-08T10:15:39;9.10;99.90
2465;DHT22;1244;54.326;10.074;2024-03-08T10:18:05;9.60;99.90
2465;DHT22;1244;54.326;10.074;2024-03-08T10:20:31;9.70;99.90
2465;DHT22;1244;54.326;10.074;2024-03-08T10:23:00;9.40;99.90
2465;DHT22;1244;54.326;10.074;2024-03-08T10:25:25;9.40;99.90
2465;DHT22;1244;54.326;10.074;2024-03-08T10:27:51;9.70;99.90
2465;DHT22;1244;54.326;10.074;2024-03-08T10:30:17;9.70;99.90
2465;DHT22;1244;54.326;10.074;2024-03-08T10:32:47;9.80;99.90
2465;DHT22;1244;54.326;10.074;2024-03-08T10:35:12;9.90;99.90
2465;DHT22;1244;54.326;10.074;2024-03-08T10:37:44;10.50;99.90
2465;DHT22;1244;54.326;10.074;2024-03-08T10:40:10;10.90;99.90
2465;DHT22;1244;54.326;10.074;2024-03-08T10:42:42;10.90;99.90
2465;DHT22;1244;54.326;10.074;2024-03-08T10:45:15;11.10;99.90
2465;DHT22;1244;54.326;10.074;2024-03-08T10:47:41;10.90;99.90
2465;DHT22;1244;54.326;10.074;2024-03-08T10:50:15;10.50;99.90
2465;DHT22;1244;54.326;10.074;2024-03-08T10:52:46;10.80;99.90
2465;DHT22;1244;54.326;10.074;2024-03-08T10:55:14;10.70;99.90
2465;DHT22;1244;54.326;10.074;2024-03-08T10:57:39;11.10;99.90
2465;DHT22;1244;54.326;10.074;2024-03-08T11:00:07;11.80;99.90
2465;DHT22;1244;54.326;10.074;2024-03-08T11:02:35;11.60;99.90
2465;DHT22;1244;54.326;10.074;2024-03-08T11:05:03;11.80;99.90
2465;DHT22;1244;54.326;10.074;2024-03-08T11:07:33;11.80;99.90
2465;DHT22;1244;54.326;10.074;2024-03-08T11:09:59;11.70;99.90
2465;DHT22;1244;54.326;10.074;2024-03-08T11:12:29;12.20;99.90
2465;DHT22;1244;54.326;10.074;2024-03-08T11:15:01;12.30;99.90
2465;DHT22;1244;54.326;10.074;2024-03-08T11:19:58;12.70;99.90
2465;DHT22;1244;54.326;10.074;2024-03-08T11:22:27;12.30;99.90
2465;DHT22;1244;54.326;10.074;2024-03-08T11:24:53;12.50;99.90
2465;DHT22;1244;54.326;10.074;2024-03-08T11:27:18;12.60;99.90
2465;DHT22;1244;54.326;10.074;2024-03-08T11:29:58;12.00;99.90
2465;DHT22;1244;54.326;10.074;2024-03-08T11:32:27;12.30;99.90
2465;DHT22;1244;54.326;10.074;2024-03-08T11:34:53;12.30;99.90
2465;DHT22;1244;54.326;10.074;2024-03-08T11:37:19;12.50;99.90
2465;DHT22;1244;54.326;10.074;2024-03-08T11:39:46;12.90;99.90
2465;DHT22;1244;54.326;10.074;2024-03-08T11:42:12;13.20;99.90
2465;DHT22;1244;54.326;10.074;2024-03-08T11:44:38;12.50;99.90
2465;DHT22;1244;54.326;10.074;2024-03-08T11:47:08;12.30;99.90
2465;DHT22;1244;54.326;10.074;2024-03-08T11:49:34;12.80;99.90
2465;DHT22;1244;54.326;10.074;2024-03-08T11:51:59;13.50;99.90
2465;DHT22;1244;54.326;10.074;2024-03-08T11:54:24;13.50;99.90
2465;DHT22;1244;54.326;10.074;2024-03-08T11:56:51;13.10;99.90
2465;DHT22;1244;54.326;10.074;2024-03-08T11:59:17;13.00;99.90
2465;DHT22;1244;54.326;10.074;2024-03-08T12:01:43;12.70;99.90
2465;DHT22;1244;54.326;10.074;2024-03-08T12:04:11;13.30;99.90
2465;DHT22;1244;54.326;10.074;2024-03-08T12:06:40;13.60;99.90
2465;DHT22;1244;54.326;10.074;2024-03-08T12:09:09;13.50;99.90
2465;DHT22;1244;54.326;10.074;2024-03-08T12:11:38;14.30;99.90
2465;DHT22;1244;54.326;10.074;2024-03-08T12:14:04;14.60;99.90
2465;DHT22;1244;54.326;10.074;2024-03-08T12:16:29;14.30;99.90
2465;DHT22;1244;54.326;10.074;2024-03-08T12:18:55;14.70;99.90
2465;DHT22;1244;54.326;10.074;2024-03-08T12:21:21;14.40;99.90
2465;DHT22;1244;54.326;10.074;2024-03-08T12:24:01;14.50;99.90
2465;DHT22;1244;54.326;10.074;2024-03-08T12:26:28;14.60;99.90
2465;DHT22;1244;54.326;10.074;2024-03-08T12:28:53;13.60;99.90
2465;DHT22;1244;54.326;10.074;2024-03-08T12:31:19;14.30;99.90
2465;DHT22;1244;54.326;10.074;2024-03-08T12:33:48;14.60;99.90
2465;DHT22;1244;54.326;10.074;2024-03-08T12:36:14;14.80;99.90
2465;DHT22;1244;54.326;10.074;2024-03-08T12:38:40;14.40;99.90
2465;DHT22;1244;54.326;10.074;2024-03-08T12:41:08;14.80;99.90
2465;DHT22;1244;54.326;10.074;2024-03-08T12:43:34;14.80;99.90
2465;DHT22;1244;54.326;10.074;2024-03-08T12:45:59;15.60;99.90
2465;DHT22;1244;54.326;10.074;2024-03-08T12:48:25;15.50;99.90
2465;DHT22;1244;54.326;10.074;2024-03-08T12:50:50;15.40;99.90
2465;DHT22;1244;54.326;10.074;2024-03-08T12:53:17;15.40;99.90
2465;DHT22;1244;54.326;10.074;2024-03-08T12:55:43;15.70;99.90
2465;DHT22;1244;54.326;10.074;2024-03-08T12:58:09;15.80;99.90
2465;DHT22;1244;54.326;10.074;2024-03-08T13:00:34;15.60;99.90
2465;DHT22;1244;54.326;10.074;2024-03-08T13:03:02;16.40;99.90
2465;DHT22;1244;54.326;10.074;2024-03-08T13:05:27;15.80;99.90
2465;DHT22;1244;54.326;10.074;2024-03-08T13:07:53;15.70;99.90
2465;DHT22;1244;54.326;10.074;2024-03-08T13:10:20;15.80;99.90
2465;DHT22;1244;54.326;10.074;2024-03-08T13:12:45;15.30;99.90
2465;DHT22;1244;54.326;10.074;2024-03-08T13:15:11;15.70;99.90
2465;DHT22;1244;54.326;10.074;2024-03-08T13:17:40;16.10;99.90
2465;DHT22;1244;54.326;10.074;2024-03-08T13:20:06;15.50;99.90
2465;DHT22;1244;54.326;10.074;2024-03-08T13:22:32;16.20;99.90
2465;DHT22;1244;54.326;10.074;2024-03-08T13:24:57;15.40;99.90
2465;DHT22;1244;54.326;10.074;2024-03-08T13:27:27;15.80;99.90
2465;DHT22;1244;54.326;10.074;2024-03-08T13:29:52;16.40;99.90
2465;DHT22;1244;54.326;10.074;2024-03-08T13:32:17;16.10;99.90
2465;DHT22;1244;54.326;10.074;2024-03-08T13:34:45;16.10;99.90
2465;DHT22;1244;54.326;10.074;2024-03-08T13:37:12;16.20;99.90
2465;DHT22;1244;54.326;10.074;2024-03-08T13:39:40;16.50;99.90
2465;DHT22;1244;54.326;10.074;2024-03-08T13:42:14;15.80;99.90
2465;DHT22;1244;54.326;10.074;2024-03-08T13:44:47;15.90;99.90
2465;DHT22;1244;54.326;10.074;2024-03-08T13:47:13;15.50;99.90
2465;DHT22;1244;54.326;10.074;2024-03-08T13:49:39;15.40;99.90
2465;DHT22;1244;54.326;10.074;2024-03-08T13:52:05;16.20;99.90
2465;DHT22;1244;54.326;10.074;2024-03-08T13:54:31;16.20;99.90
2465;DHT22;1244;54.326;10.074;2024-03-08T13:56:57;15.30;99.90
2465;DHT22;1244;54.326;10.074;2024-03-08T13:59:23;15.50;99.90
2465;DHT22;1244;54.326;10.074;2024-03-08T14:01:49;15.60;99.90
2465;DHT22;1244;54.326;10.074;2024-03-08T14:04:15;15.10;99.90
2465;DHT22;1244;54.326;10.074;2024-03-08T14:06:42;14.90;99.90
2465;DHT22;1244;54.326;10.074;2024-03-08T14:09:10;15.30;99.90
2465;DHT22;1244;54.326;10.074;2024-03-08T14:11:42;15.40;99.90
2465;DHT22;1244;54.326;10.074;2024-03-08T14:14:10;15.80;99.90
2465;DHT22;1244;54.326;10.074;2024-03-08T14:16:35;14.90;99.90
2465;DHT22;1244;54.326;10.074;2024-03-08T14:19:04;14.90;99.90
2465;DHT22;1244;54.326;10.074;2024-03-08T14:21:31;14.30;99.90
2465;DHT22;1244;54.326;10.074;2024-03-08T14:23:56;14.70;99.90
2465;DHT22;1244;54.326;10.074;2024-03-08T14:26:22;15.30;99.90
2465;DHT22;1244;54.326;10.074;2024-03-08T14:28:51;15.00;99.90
2465;DHT22;1244;54.326;10.074;2024-03-08T14:31:22;15.20;99.90
2465;DHT22;1244;54.326;10.074;2024-03-08T14:33:51;14.70;99.90
2465;DHT22;1244;54.326;10.074;2024-03-08T14:36:18;14.40;99.90
2465;DHT22;1244;54.326;10.074;2024-03-08T14:38:45;12.30;99.90
2465;DHT22;1244;54.326;10.074;2024-03-08T14:41:12;11.60;99.90
2465;DHT22;1244;54.326;10.074;2024-03-08T14:43:41;10.20;99.90
2465;DHT22;1244;54.326;10.074;2024-03-08T14:46:07;10.20;99.90
2465;DHT22;1244;54.326;10.074;2024-03-08T14:48:32;9.80;99.90
2465;DHT22;1244;54.326;10.074;2024-03-08T14:50:58;9.50;99.90
2465;DHT22;1244;54.326;10.074;2024-03-08T14:53:24;9.20;99.90
2465;DHT22;1244;54.326;10.074;2024-03-08T14:55:50;8.80;99.90
2465;DHT22;1244;54.326;10.074;2024-03-08T14:58:16;8.90;99.90
2465;DHT22;1244;54.326;10.074;2024-03-08T15:00:42;8.80;99.90
2465;DHT22;1244;54.326;10.074;2024-03-08T15:03:08;8.80;99.90
2465;DHT22;1244;54.326;10.074;2024-03-08T15:05:38;8.80;99.90
2465;DHT22;1244;54.326;10.074;2024-03-08T15:08:07;8.50;99.90
2465;DHT22;1244;54.326;10.074;2024-03-08T15:10:35;8.00;99.90
2465;DHT22;1244;54.326;10.074;2024-03-08T15:13:01;7.90;99.90
2465;DHT22;1244;54.326;10.074;2024-03-08T15:15:33;8.00;99.90
2465;DHT22;1244;54.326;10.074;2024-03-08T15:17:58;8.10;99.90
2465;DHT22;1244;54.326;10.074;2024-03-08T15:20:24;8.00;99.90
2465;DHT22;1244;54.326;10.074;2024-03-08T15:22:50;8.00;99.90
2465;DHT22;1244;54.326;10.074;2024-03-08T15:25:17;8.00;99.90
2465;DHT22;1244;54.326;10.074;2024-03-08T15:27:48;7.80;99.90
2465;DHT22;1244;54.326;10.074;2024-03-08T15:30:14;7.60;99.90
2465;DHT22;1244;54.326;10.074;2024-03-08T15:32:45;7.40;99.90
2465;DHT22;1244;54.326;10.074;2024-03-08T15:35:11;7.50;99.90
2465;DHT22;1244;54.326;10.074;2024-03-08T15:37:39;7.30;99.90
2465;DHT22;1244;54.326;10.074;2024-03-08T15:40:10;7.30;99.90
2465;DHT22;1244;54.326;10.074;2024-03-08T15:42:41;7.40;99.90
2465;DHT22;1244;54.326;10.074;2024-03-08T15:45:07;7.10;99.90
2465;DHT22;1244;54.326;10.074;2024-03-08T15:47:34;7.30;99.90
2465;DHT22;1244;54.326;10.074;2024-03-08T15:49:59;6.70;99.90
2465;DHT22;1244;54.326;10.074;2024-03-08T15:52:28;6.60;99.90
2465;DHT22;1244;54.326;10.074;2024-03-08T15:54:54;6.40;99.90